PWSweather.com
Personal Weather Stations
Station Observations
KNVELKO7
Elko, NV 89801

Elko, NV 89801

Lat: 40.963233, Lon: -115.592836

Elevation: 5230

Station Type: WS-2812

High Low Average
Temperature 74.9°F23.8°C 38.2°F3.4°C 56.1°F13.4°C
Dew Point 43.2°F6.2°C 19.1°F-7.2°C 33.8°F1.0°C
Winds 16.5 mph 26.6 kmh Calm Calm 5.0 mph S8.0 kmh S
Wind Gusts 19.7 mph31.7 kmh -- 8.0 mph12.9 kmh
Humidity 70% 24% 45%
Pressure 30.03 in1016.9 mb 29.88 in1011.9 mb -
Precipitation 0.00 in0.0 mm - -
Hour Temp Dew Point Humidity Winds Wind Gusts Pressure Precip Precip Rate Daily Precip Total
12:00 AM 57.8°F14.3°C 34.2°F1.2°C 41% 4.6 mph NNW7.4 kmh NNW 12.3 mph19.8 kmh 29.87 in1011.5 mb 0.00 in0.0 mm 0.00 in/hr0.0 mm/hr 0.00 in0.0 mm
12:05 AM 57.4°F14.1°C 35.0°F1.7°C 43% 8.3 mph NW13.4 kmh NW 8.5 mph13.7 kmh 29.87 in1011.5 mb 0.00 in0.0 mm 0.00 in/hr0.0 mm/hr 0.00 in0.0 mm
12:10 AM 57.2°F14.0°C 34.8°F1.6°C 43% 4.2 mph N6.8 kmh N 8.5 mph13.7 kmh 29.87 in1011.5 mb 0.00 in0.0 mm 0.00 in/hr0.0 mm/hr 0.00 in0.0 mm
12:15 AM 56.9°F13.8°C 34.5°F1.4°C 43% 4.3 mph N6.9 kmh N 7.2 mph11.6 kmh 29.88 in1011.9 mb 0.00 in0.0 mm 0.00 in/hr0.0 mm/hr 0.00 in0.0 mm
12:20 AM 56.7°F13.7°C 34.9°F1.6°C 44% 4.8 mph NNW7.7 kmh NNW 7.6 mph12.2 kmh 29.88 in1011.9 mb 0.00 in0.0 mm 0.00 in/hr0.0 mm/hr 0.00 in0.0 mm
12:25 AM 56.5°F13.6°C 34.2°F1.2°C 43% 1.8 mph 2.9 kmh 7.6 mph12.2 kmh 29.88 in1011.9 mb 0.00 in0.0 mm 0.00 in/hr0.0 mm/hr 0.00 in0.0 mm
12:30 AM 56.5°F13.6°C 34.7°F1.5°C 44% Calm Calm 3.4 mph5.5 kmh 29.88 in1011.9 mb 0.00 in0.0 mm 0.00 in/hr0.0 mm/hr 0.00 in0.0 mm
12:35 AM 56.3°F13.5°C 34.6°F1.4°C 44% Calm Calm 2.0 mph3.2 kmh 29.88 in1011.9 mb 0.00 in0.0 mm 0.00 in/hr0.0 mm/hr 0.00 in0.0 mm
12:40 AM 56.2°F13.4°C 34.4°F1.3°C 44% 3.1 mph NNW5.0 kmh NNW 3.6 mph5.8 kmh 29.88 in1011.9 mb 0.00 in0.0 mm 0.00 in/hr0.0 mm/hr 0.00 in0.0 mm
12:45 AM 56.0°F13.3°C 34.8°F1.6°C 45% 3.8 mph 6.1 kmh 4.0 mph6.4 kmh 29.88 in1011.9 mb 0.00 in0.0 mm 0.00 in/hr0.0 mm/hr 0.00 in0.0 mm
12:49 AM 55.8°F13.2°C 34.7°F1.5°C 45% 5.6 mph S9.0 kmh S 6.3 mph10.1 kmh 29.88 in1011.9 mb 0.00 in0.0 mm 0.00 in/hr0.0 mm/hr 0.00 in0.0 mm
12:54 AM 55.6°F13.1°C 35.0°F1.7°C 46% 2.2 mph SE3.5 kmh SE 6.3 mph10.1 kmh 29.89 in1012.2 mb 0.00 in0.0 mm 0.00 in/hr0.0 mm/hr 0.00 in0.0 mm
01:00 AM 55.4°F13.0°C 34.8°F1.6°C 46% 1.2 mph SW1.9 kmh SW 4.9 mph7.9 kmh 29.89 in1012.2 mb 0.00 in0.0 mm 0.00 in/hr0.0 mm/hr 0.00 in0.0 mm
01:05 AM 55.4°F13.0°C 34.8°F1.6°C 46% 0.7 mph SSE1.1 kmh SSE 2.0 mph3.2 kmh 29.89 in1012.2 mb 0.00 in0.0 mm 0.00 in/hr0.0 mm/hr 0.00 in0.0 mm
01:10 AM 55.3°F12.9°C 34.7°F1.5°C 46% Calm Calm 2.0 mph3.2 kmh 29.89 in1012.2 mb 0.00 in0.0 mm 0.00 in/hr0.0 mm/hr 0.00 in0.0 mm
01:15 AM 55.3°F12.9°C 34.7°F1.5°C 46% 0.3 mph SE0.5 kmh SE 0.9 mph1.4 kmh 29.89 in1012.2 mb 0.00 in0.0 mm 0.00 in/hr0.0 mm/hr 0.00 in0.0 mm
01:20 AM 55.1°F12.8°C 35.1°F1.7°C 47% 2.9 mph S4.7 kmh S 3.6 mph5.8 kmh 29.89 in1012.2 mb 0.00 in0.0 mm 0.00 in/hr0.0 mm/hr 0.00 in0.0 mm
01:25 AM 55.1°F12.8°C 35.6°F2.0°C 48% 2.9 mph SW4.7 kmh SW 4.0 mph6.4 kmh 29.89 in1012.2 mb 0.00 in0.0 mm 0.00 in/hr0.0 mm/hr 0.00 in0.0 mm
01:30 AM 55.1°F12.8°C 36.2°F2.3°C 49% 5.2 mph WSW8.4 kmh WSW 5.8 mph9.3 kmh 29.89 in1012.2 mb 0.00 in0.0 mm 0.00 in/hr0.0 mm/hr 0.00 in0.0 mm
01:35 AM 55.1°F12.8°C 36.7°F2.6°C 50% 5.6 mph SW9.0 kmh SW 6.7 mph10.8 kmh 29.89 in1012.2 mb 0.00 in0.0 mm 0.00 in/hr0.0 mm/hr 0.00 in0.0 mm
01:40 AM 55.1°F12.8°C 36.2°F2.3°C 49% 8.7 mph SW14.0 kmh SW 9.8 mph15.8 kmh 29.89 in1012.2 mb 0.00 in0.0 mm 0.00 in/hr0.0 mm/hr 0.00 in0.0 mm
01:45 AM 55.4°F13.0°C 37.1°F2.8°C 50% 5.2 mph WSW8.4 kmh WSW 9.8 mph15.8 kmh 29.89 in1012.2 mb 0.00 in0.0 mm 0.00 in/hr0.0 mm/hr 0.00 in0.0 mm
01:50 AM 55.4°F13.0°C 36.6°F2.6°C 49% 5.4 mph SW8.7 kmh SW 8.9 mph14.3 kmh 29.90 in1012.5 mb 0.00 in0.0 mm 0.00 in/hr0.0 mm/hr 0.00 in0.0 mm
01:55 AM 55.4°F13.0°C 37.1°F2.8°C 50% 3.2 mph SW5.1 kmh SW 6.3 mph10.1 kmh 29.90 in1012.5 mb 0.00 in0.0 mm 0.00 in/hr0.0 mm/hr 0.00 in0.0 mm
02:00 AM 55.3°F12.9°C 36.9°F2.7°C 50% 3.6 mph SW5.8 kmh SW 6.3 mph10.1 kmh 29.90 in1012.5 mb 0.00 in0.0 mm 0.00 in/hr0.0 mm/hr 0.00 in0.0 mm
02:05 AM 55.1°F12.8°C 36.7°F2.6°C 50% 4.4 mph SSW7.1 kmh SSW 5.4 mph8.7 kmh 29.90 in1012.5 mb 0.00 in0.0 mm 0.00 in/hr0.0 mm/hr 0.00 in0.0 mm
02:10 AM 54.9°F12.7°C 36.6°F2.6°C 50% 3.6 mph SW5.8 kmh SW 6.3 mph10.1 kmh 29.90 in1012.5 mb 0.00 in0.0 mm 0.00 in/hr0.0 mm/hr 0.00 in0.0 mm
02:15 AM 54.9°F12.7°C 36.6°F2.6°C 50% 4.4 mph SW7.1 kmh SW 6.9 mph11.1 kmh 29.90 in1012.5 mb 0.00 in0.0 mm 0.00 in/hr0.0 mm/hr 0.00 in0.0 mm
02:20 AM 54.9°F12.7°C 37.1°F2.8°C 51% 3.1 mph SSW5.0 kmh SSW 7.8 mph12.6 kmh 29.89 in1012.2 mb 0.00 in0.0 mm 0.00 in/hr0.0 mm/hr 0.00 in0.0 mm
02:25 AM 54.7°F12.6°C 36.9°F2.7°C 51% 4.3 mph SW6.9 kmh SW 7.8 mph12.6 kmh 29.89 in1012.2 mb 0.00 in0.0 mm 0.00 in/hr0.0 mm/hr 0.00 in0.0 mm
02:30 AM 54.5°F12.5°C 37.2°F2.9°C 52% 1.2 mph SE1.9 kmh SE 5.6 mph9.0 kmh 29.88 in1011.9 mb 0.00 in0.0 mm 0.00 in/hr0.0 mm/hr 0.00 in0.0 mm
02:35 AM 54.4°F12.4°C 37.1°F2.8°C 52% 2.3 mph SE3.7 kmh SE 2.5 mph4.0 kmh 29.88 in1011.9 mb 0.00 in0.0 mm 0.00 in/hr0.0 mm/hr 0.00 in0.0 mm
02:40 AM 54.4°F12.4°C 37.5°F3.1°C 53% 0.9 mph SE1.4 kmh SE 2.5 mph4.0 kmh 29.89 in1012.2 mb 0.00 in0.0 mm 0.00 in/hr0.0 mm/hr 0.00 in0.0 mm
02:45 AM 54.2°F12.3°C 37.4°F3.0°C 53% Calm Calm 1.8 mph2.9 kmh 29.88 in1011.9 mb 0.00 in0.0 mm 0.00 in/hr0.0 mm/hr 0.00 in0.0 mm
02:50 AM 54.0°F12.2°C 37.6°F3.1°C 54% 0.2 mph SE0.3 kmh SE 0.2 mph0.3 kmh 29.89 in1012.2 mb 0.00 in0.0 mm 0.00 in/hr0.0 mm/hr 0.00 in0.0 mm
02:55 AM 53.6°F12.0°C 37.4°F3.0°C 54% 1.8 mph SE2.9 kmh SE 2.0 mph3.2 kmh 29.89 in1012.2 mb 0.00 in0.0 mm 0.00 in/hr0.0 mm/hr 0.00 in0.0 mm
03:01 AM 53.6°F12.0°C 37.4°F3.0°C 54% 1.0 mph SSE1.6 kmh SSE 2.0 mph3.2 kmh 29.89 in1012.2 mb 0.00 in0.0 mm 0.00 in/hr0.0 mm/hr 0.00 in0.0 mm
03:06 AM 53.3°F11.8°C 37.4°F3.0°C 55% 1.5 mph SSE2.4 kmh SSE 1.8 mph2.9 kmh 29.89 in1012.2 mb 0.00 in0.0 mm 0.00 in/hr0.0 mm/hr 0.00 in0.0 mm
03:11 AM 53.1°F11.7°C 37.3°F2.9°C 55% 0.2 mph SSE0.3 kmh SSE 1.8 mph2.9 kmh 29.89 in1012.2 mb 0.00 in0.0 mm 0.00 in/hr0.0 mm/hr 0.00 in0.0 mm
03:16 AM 52.9°F11.6°C 37.1°F2.8°C 55% Calm Calm 1.3 mph2.1 kmh 29.89 in1012.2 mb 0.00 in0.0 mm 0.00 in/hr0.0 mm/hr 0.00 in0.0 mm
03:20 AM 52.7°F11.5°C 36.9°F2.7°C 55% Calm Calm -- 29.89 in1012.2 mb 0.00 in0.0 mm 0.00 in/hr0.0 mm/hr 0.00 in0.0 mm
03:25 AM 52.6°F11.4°C 37.3°F2.9°C 56% 2.0 mph WNW3.2 kmh WNW 2.2 mph3.5 kmh 29.89 in1012.2 mb 0.00 in0.0 mm 0.00 in/hr0.0 mm/hr 0.00 in0.0 mm
03:30 AM 52.2°F11.2°C 37.4°F3.0°C 57% 1.8 mph W2.9 kmh W 2.5 mph4.0 kmh 29.89 in1012.2 mb 0.00 in0.0 mm 0.00 in/hr0.0 mm/hr 0.00 in0.0 mm
03:35 AM 52.0°F11.1°C 37.6°F3.1°C 58% 1.6 mph WSW2.6 kmh WSW 2.5 mph4.0 kmh 29.89 in1012.2 mb 0.00 in0.0 mm 0.00 in/hr0.0 mm/hr 0.00 in0.0 mm
03:40 AM 52.0°F11.1°C 37.2°F2.9°C 57% 5.3 mph WSW8.5 kmh WSW 5.8 mph9.3 kmh 29.90 in1012.5 mb 0.00 in0.0 mm 0.00 in/hr0.0 mm/hr 0.00 in0.0 mm
03:45 AM 51.8°F11.0°C 37.4°F3.0°C 58% 3.7 mph WSW6.0 kmh WSW 5.8 mph9.3 kmh 29.90 in1012.5 mb 0.00 in0.0 mm 0.00 in/hr0.0 mm/hr 0.00 in0.0 mm
03:50 AM 51.8°F11.0°C 38.3°F3.5°C 60% 6.1 mph WSW9.8 kmh WSW 6.3 mph10.1 kmh 29.90 in1012.5 mb 0.00 in0.0 mm 0.00 in/hr0.0 mm/hr 0.00 in0.0 mm
03:55 AM 51.8°F11.0°C 38.3°F3.5°C 60% 8.6 mph WSW13.8 kmh WSW 8.7 mph14.0 kmh 29.90 in1012.5 mb 0.00 in0.0 mm 0.00 in/hr0.0 mm/hr 0.00 in0.0 mm
04:01 AM 52.0°F11.1°C 39.0°F3.9°C 61% 7.3 mph SW11.7 kmh SW 8.7 mph14.0 kmh 29.90 in1012.5 mb 0.00 in0.0 mm 0.00 in/hr0.0 mm/hr 0.00 in0.0 mm
04:06 AM 52.0°F11.1°C 39.3°F4.1°C 62% 6.4 mph WSW10.3 kmh WSW 8.5 mph13.7 kmh 29.91 in1012.9 mb 0.00 in0.0 mm 0.00 in/hr0.0 mm/hr 0.00 in0.0 mm
04:11 AM 52.2°F11.2°C 40.0°F4.4°C 63% 5.9 mph W9.5 kmh W 7.2 mph11.6 kmh 29.91 in1012.9 mb 0.00 in0.0 mm 0.00 in/hr0.0 mm/hr 0.00 in0.0 mm
04:16 AM 51.8°F11.0°C 39.6°F4.2°C 63% 4.7 mph WNW7.6 kmh WNW 7.2 mph11.6 kmh 29.91 in1012.9 mb 0.00 in0.0 mm 0.00 in/hr0.0 mm/hr 0.00 in0.0 mm
04:21 AM 51.5°F10.8°C 39.2°F4.0°C 63% 6.1 mph NW9.8 kmh NW 7.2 mph11.6 kmh 29.91 in1012.9 mb 0.00 in0.0 mm 0.00 in/hr0.0 mm/hr 0.00 in0.0 mm
04:26 AM 51.5°F10.8°C 38.9°F3.8°C 62% 2.0 mph NNW3.2 kmh NNW 7.2 mph11.6 kmh 29.91 in1012.9 mb 0.00 in0.0 mm 0.00 in/hr0.0 mm/hr 0.00 in0.0 mm
04:31 AM 51.1°F10.6°C 38.5°F3.6°C 62% 2.2 mph NNW3.5 kmh NNW 6.9 mph11.1 kmh 29.91 in1012.9 mb 0.00 in0.0 mm 0.00 in/hr0.0 mm/hr 0.00 in0.0 mm
04:36 AM 50.8°F10.4°C 38.2°F3.4°C 62% 4.8 mph 7.7 kmh 5.8 mph9.3 kmh 29.91 in1012.9 mb 0.00 in0.0 mm 0.00 in/hr0.0 mm/hr 0.00 in0.0 mm
04:41 AM 50.4°F10.2°C 38.3°F3.5°C 63% 0.2 mph ENE0.3 kmh ENE 5.8 mph9.3 kmh 29.91 in1012.9 mb 0.00 in0.0 mm 0.00 in/hr0.0 mm/hr 0.00 in0.0 mm
04:46 AM 50.2°F10.1°C 38.1°F3.4°C 63% 1.0 mph NE1.6 kmh NE 4.9 mph7.9 kmh 29.91 in1012.9 mb 0.00 in0.0 mm 0.00 in/hr0.0 mm/hr 0.00 in0.0 mm
04:50 AM 50.0°F10.0°C 37.5°F3.1°C 62% 2.2 mph 3.5 kmh 2.5 mph4.0 kmh 29.91 in1012.9 mb 0.00 in0.0 mm 0.00 in/hr0.0 mm/hr 0.00 in0.0 mm
04:55 AM 49.9°F9.9°C 38.2°F3.4°C 64% 3.4 mph NNW5.5 kmh NNW 4.0 mph6.4 kmh 29.91 in1012.9 mb 0.00 in0.0 mm 0.00 in/hr0.0 mm/hr 0.00 in0.0 mm
05:01 AM 49.7°F9.8°C 38.0°F3.3°C 64% 2.5 mph NNW4.0 kmh NNW 4.0 mph6.4 kmh 29.91 in1012.9 mb 0.00 in0.0 mm 0.00 in/hr0.0 mm/hr 0.00 in0.0 mm
05:06 AM 49.5°F9.7°C 37.8°F3.2°C 64% 2.4 mph NNW3.9 kmh NNW 6.3 mph10.1 kmh 29.92 in1013.2 mb 0.00 in0.0 mm 0.00 in/hr0.0 mm/hr 0.00 in0.0 mm
05:11 AM 49.3°F9.6°C 37.3°F2.9°C 63% 2.0 mph 3.2 kmh 6.3 mph10.1 kmh 29.92 in1013.2 mb 0.00 in0.0 mm 0.00 in/hr0.0 mm/hr 0.00 in0.0 mm
05:16 AM 49.1°F9.5°C 37.1°F2.8°C 63% 3.2 mph N5.1 kmh N 4.0 mph6.4 kmh 29.92 in1013.2 mb 0.00 in0.0 mm 0.00 in/hr0.0 mm/hr 0.00 in0.0 mm
05:21 AM 49.0°F9.4°C 37.3°F2.9°C 64% 4.3 mph 6.9 kmh 5.6 mph9.0 kmh 29.92 in1013.2 mb 0.00 in0.0 mm 0.00 in/hr0.0 mm/hr 0.00 in0.0 mm
05:26 AM 48.6°F9.2°C 37.4°F3.0°C 65% 6.4 mph 10.3 kmh 6.7 mph10.8 kmh 29.92 in1013.2 mb 0.00 in0.0 mm 0.00 in/hr0.0 mm/hr 0.00 in0.0 mm
05:31 AM 48.2°F9.0°C 37.4°F3.0°C 66% 6.6 mph NNW10.6 kmh NNW 7.8 mph12.6 kmh 29.92 in1013.2 mb 0.00 in0.0 mm 0.00 in/hr0.0 mm/hr 0.00 in0.0 mm
05:36 AM 47.9°F8.8°C 37.5°F3.1°C 67% 3.8 mph 6.1 kmh 7.8 mph12.6 kmh 29.92 in1013.2 mb 0.00 in0.0 mm 0.00 in/hr0.0 mm/hr 0.00 in0.0 mm
05:41 AM 47.9°F8.8°C 37.5°F3.1°C 67% 7.1 mph 11.4 kmh 7.2 mph11.6 kmh 29.92 in1013.2 mb 0.00 in0.0 mm 0.00 in/hr0.0 mm/hr 0.00 in0.0 mm
05:46 AM 47.7°F8.7°C 37.6°F3.1°C 68% 3.7 mph NNW6.0 kmh NNW 7.2 mph11.6 kmh 29.93 in1013.5 mb 0.00 in0.0 mm 0.00 in/hr0.0 mm/hr 0.00 in0.0 mm
05:51 AM 47.7°F8.7°C 37.6°F3.1°C 68% 7.3 mph 11.7 kmh 7.6 mph12.2 kmh 29.93 in1013.5 mb 0.00 in0.0 mm 0.00 in/hr0.0 mm/hr 0.00 in0.0 mm
05:56 AM 47.7°F8.7°C 37.6°F3.1°C 68% 5.1 mph N8.2 kmh N 7.6 mph12.2 kmh 29.93 in1013.5 mb 0.00 in0.0 mm 0.00 in/hr0.0 mm/hr 0.00 in0.0 mm
06:01 AM 47.7°F8.7°C 38.0°F3.3°C 69% 5.0 mph N8.0 kmh N 7.6 mph12.2 kmh 29.93 in1013.5 mb 0.00 in0.0 mm 0.00 in/hr0.0 mm/hr 0.00 in0.0 mm
06:06 AM 47.5°F8.6°C 37.9°F3.3°C 69% 6.9 mph 11.1 kmh 7.6 mph12.2 kmh 29.94 in1013.9 mb 0.00 in0.0 mm 0.00 in/hr0.0 mm/hr 0.00 in0.0 mm
06:11 AM 47.5°F8.6°C 37.9°F3.3°C 69% 5.2 mph 8.4 kmh 7.6 mph12.2 kmh 29.94 in1013.9 mb 0.00 in0.0 mm 0.00 in/hr0.0 mm/hr 0.00 in0.0 mm
06:16 AM 47.3°F8.5°C 38.1°F3.4°C 70% 6.6 mph NNW10.6 kmh NNW 7.8 mph12.6 kmh 29.94 in1013.9 mb 0.00 in0.0 mm 0.00 in/hr0.0 mm/hr 0.00 in0.0 mm
06:21 AM 47.3°F8.5°C 38.1°F3.4°C 70% 4.0 mph 6.4 kmh 7.8 mph12.6 kmh 29.94 in1013.9 mb 0.00 in0.0 mm 0.00 in/hr0.0 mm/hr 0.00 in0.0 mm
06:26 AM 47.3°F8.5°C 38.1°F3.4°C 70% 7.3 mph N11.7 kmh N 8.9 mph14.3 kmh 29.94 in1013.9 mb 0.00 in0.0 mm 0.00 in/hr0.0 mm/hr 0.00 in0.0 mm
06:31 AM 47.5°F8.6°C 38.3°F3.5°C 70% 7.5 mph 12.1 kmh 9.8 mph15.8 kmh 29.94 in1013.9 mb 0.00 in0.0 mm 0.00 in/hr0.0 mm/hr 0.00 in0.0 mm
06:36 AM 47.5°F8.6°C 37.9°F3.3°C 69% 9.3 mph 15.0 kmh 11.0 mph17.7 kmh 29.95 in1014.2 mb 0.00 in0.0 mm 0.00 in/hr0.0 mm/hr 0.00 in0.0 mm
06:41 AM 47.3°F8.5°C 37.7°F3.2°C 69% 8.6 mph NW13.8 kmh NW 11.0 mph17.7 kmh 29.95 in1014.2 mb 0.00 in0.0 mm 0.00 in/hr0.0 mm/hr 0.00 in0.0 mm
06:46 AM 47.3°F8.5°C 37.3°F2.9°C 68% 9.9 mph NNW15.9 kmh NNW 11.0 mph17.7 kmh 29.95 in1014.2 mb 0.00 in0.0 mm 0.00 in/hr0.0 mm/hr 0.00 in0.0 mm
06:51 AM 47.3°F8.5°C 37.3°F2.9°C 68% 9.8 mph N15.8 kmh N 11.0 mph17.7 kmh 29.95 in1014.2 mb 0.00 in0.0 mm 0.00 in/hr0.0 mm/hr 0.00 in0.0 mm
06:56 AM 47.2°F8.4°C 37.2°F2.9°C 68% 10.4 mph 16.7 kmh 12.5 mph20.1 kmh 29.96 in1014.6 mb 0.00 in0.0 mm 0.00 in/hr0.0 mm/hr 0.00 in0.0 mm
07:02 AM 47.2°F8.4°C 36.7°F2.6°C 67% 11.6 mph N18.7 kmh N 12.5 mph20.1 kmh 29.96 in1014.6 mb 0.00 in0.0 mm 0.00 in/hr0.0 mm/hr 0.00 in0.0 mm
07:07 AM 47.2°F8.4°C 36.7°F2.6°C 67% 8.1 mph N13.0 kmh N 12.8 mph20.6 kmh 29.96 in1014.6 mb 0.00 in0.0 mm 0.00 in/hr0.0 mm/hr 0.00 in0.0 mm
07:11 AM 47.2°F8.4°C 36.4°F2.4°C 66% 13.2 mph NNW21.2 kmh NNW 13.2 mph21.2 kmh 29.96 in1014.6 mb 0.00 in0.0 mm 0.00 in/hr0.0 mm/hr 0.00 in0.0 mm
07:16 AM 47.3°F8.5°C 36.2°F2.3°C 65% 12.8 mph N20.6 kmh N 13.4 mph21.6 kmh 29.97 in1014.9 mb 0.00 in0.0 mm 0.00 in/hr0.0 mm/hr 0.00 in0.0 mm
07:21 AM 47.2°F8.4°C 36.0°F2.2°C 65% 9.9 mph NNW15.9 kmh NNW 14.1 mph22.7 kmh 29.97 in1014.9 mb 0.00 in0.0 mm 0.00 in/hr0.0 mm/hr 0.00 in0.0 mm
07:26 AM 47.2°F8.4°C 35.6°F2.0°C 64% 13.9 mph NNE22.4 kmh NNE 16.3 mph26.2 kmh 29.97 in1014.9 mb 0.00 in0.0 mm 0.00 in/hr0.0 mm/hr 0.00 in0.0 mm
07:31 AM 47.2°F8.4°C 35.6°F2.0°C 64% 12.2 mph NNW19.6 kmh NNW 16.3 mph26.2 kmh 29.98 in1015.2 mb 0.00 in0.0 mm 0.00 in/hr0.0 mm/hr 0.00 in0.0 mm
07:36 AM 47.0°F8.3°C 35.8°F2.1°C 65% 14.5 mph NNW23.3 kmh NNW 15.9 mph25.6 kmh 29.98 in1015.2 mb 0.00 in0.0 mm 0.00 in/hr0.0 mm/hr 0.00 in0.0 mm
07:41 AM 46.6°F8.1°C 35.5°F1.9°C 65% 12.6 mph N20.3 kmh N 15.9 mph25.6 kmh 29.98 in1015.2 mb 0.00 in0.0 mm 0.00 in/hr0.0 mm/hr 0.00 in0.0 mm
07:46 AM 46.4°F8.0°C 35.6°F2.0°C 66% 15.6 mph NW25.1 kmh NW 17.9 mph28.8 kmh 29.98 in1015.2 mb 0.00 in0.0 mm 0.00 in/hr0.0 mm/hr 0.00 in0.0 mm
07:51 AM 46.4°F8.0°C 35.6°F2.0°C 66% 12.9 mph NNW20.8 kmh NNW 17.9 mph28.8 kmh 29.99 in1015.6 mb 0.00 in0.0 mm 0.00 in/hr0.0 mm/hr 0.00 in0.0 mm
07:56 AM 46.4°F8.0°C 35.6°F2.0°C 66% 15.7 mph NNW25.3 kmh NNW 16.6 mph26.7 kmh 29.99 in1015.6 mb 0.00 in0.0 mm 0.00 in/hr0.0 mm/hr 0.00 in0.0 mm
08:02 AM 46.4°F8.0°C 35.6°F2.0°C 66% 15.6 mph NNW25.1 kmh NNW 17.2 mph27.7 kmh 29.99 in1015.6 mb 0.00 in0.0 mm 0.00 in/hr0.0 mm/hr 0.00 in0.0 mm
08:07 AM 46.4°F8.0°C 35.6°F2.0°C 66% 14.8 mph NNW23.8 kmh NNW 17.2 mph27.7 kmh 29.99 in1015.6 mb 0.00 in0.0 mm 0.00 in/hr0.0 mm/hr 0.00 in0.0 mm
08:12 AM 46.4°F8.0°C 35.3°F1.8°C 65% 15.8 mph NNW25.4 kmh NNW 19.7 mph31.7 kmh 30.00 in1015.9 mb 0.00 in0.0 mm 0.00 in/hr0.0 mm/hr 0.00 in0.0 mm
08:17 AM 46.4°F8.0°C 35.3°F1.8°C 65% 15.3 mph NNW24.6 kmh NNW 19.7 mph31.7 kmh 30.00 in1015.9 mb 0.00 in0.0 mm 0.00 in/hr0.0 mm/hr 0.00 in0.0 mm
08:22 AM 46.3°F7.9°C 35.1°F1.7°C 65% 16.5 mph NW26.6 kmh NW 18.8 mph30.3 kmh 30.00 in1015.9 mb 0.00 in0.0 mm 0.00 in/hr0.0 mm/hr 0.00 in0.0 mm
08:27 AM 46.4°F8.0°C 35.3°F1.8°C 65% 15.6 mph NNW25.1 kmh NNW 17.2 mph27.7 kmh 30.00 in1015.9 mb 0.00 in0.0 mm 0.00 in/hr0.0 mm/hr 0.00 in0.0 mm
08:32 AM 46.6°F8.1°C 35.1°F1.7°C 64% 13.3 mph NNW21.4 kmh NNW 16.3 mph26.2 kmh 30.00 in1015.9 mb 0.00 in0.0 mm 0.00 in/hr0.0 mm/hr 0.00 in0.0 mm
08:36 AM 46.8°F8.2°C 35.2°F1.8°C 64% 12.2 mph NNW19.6 kmh NNW 16.3 mph26.2 kmh 30.01 in1016.3 mb 0.00 in0.0 mm 0.00 in/hr0.0 mm/hr 0.00 in0.0 mm
08:41 AM 47.2°F8.4°C 35.2°F1.8°C 63% 9.3 mph NW15.0 kmh NW 13.2 mph21.2 kmh 30.01 in1016.3 mb 0.00 in0.0 mm 0.00 in/hr0.0 mm/hr 0.00 in0.0 mm
08:46 AM 47.7°F8.7°C 35.7°F2.1°C 63% 11.6 mph 18.7 kmh 12.5 mph20.1 kmh 30.01 in1016.3 mb 0.00 in0.0 mm 0.00 in/hr0.0 mm/hr 0.00 in0.0 mm
08:51 AM 47.7°F8.7°C 35.7°F2.1°C 63% 9.4 mph NNW15.1 kmh NNW 13.4 mph21.6 kmh 30.01 in1016.3 mb 0.00 in0.0 mm 0.00 in/hr0.0 mm/hr 0.00 in0.0 mm
08:56 AM 47.5°F8.6°C 35.2°F1.8°C 62% 8.9 mph NNW14.3 kmh NNW 13.4 mph21.6 kmh 30.02 in1016.6 mb 0.00 in0.0 mm 0.00 in/hr0.0 mm/hr 0.00 in0.0 mm
09:02 AM 47.5°F8.6°C 35.2°F1.8°C 62% 7.6 mph N12.2 kmh N 9.4 mph15.1 kmh 30.02 in1016.6 mb 0.00 in0.0 mm 0.00 in/hr0.0 mm/hr 0.00 in0.0 mm
09:07 AM 47.2°F8.4°C 34.8°F1.6°C 62% 7.2 mph N11.6 kmh N 8.9 mph14.3 kmh 30.02 in1016.6 mb 0.00 in0.0 mm 0.00 in/hr0.0 mm/hr 0.00 in0.0 mm
09:12 AM 47.2°F8.4°C 34.8°F1.6°C 62% 4.9 mph N7.9 kmh N 8.9 mph14.3 kmh 30.02 in1016.6 mb 0.00 in0.0 mm 0.00 in/hr0.0 mm/hr 0.00 in0.0 mm
09:17 AM 47.0°F8.3°C 34.7°F1.5°C 62% 2.8 mph 4.5 kmh 7.4 mph11.9 kmh 30.02 in1016.6 mb 0.00 in0.0 mm 0.00 in/hr0.0 mm/hr 0.00 in0.0 mm
09:22 AM 47.2°F8.4°C 34.8°F1.6°C 62% 6.1 mph N9.8 kmh N 6.5 mph10.5 kmh 30.02 in1016.6 mb 0.00 in0.0 mm 0.00 in/hr0.0 mm/hr 0.00 in0.0 mm
09:27 AM 47.3°F8.5°C 35.0°F1.7°C 62% 3.7 mph NE6.0 kmh NE 6.5 mph10.5 kmh 30.02 in1016.6 mb 0.00 in0.0 mm 0.00 in/hr0.0 mm/hr 0.00 in0.0 mm
09:32 AM 47.5°F8.6°C 35.2°F1.8°C 62% 5.8 mph 9.3 kmh 6.5 mph10.5 kmh 30.02 in1016.6 mb 0.00 in0.0 mm 0.00 in/hr0.0 mm/hr 0.00 in0.0 mm
09:37 AM 47.9°F8.8°C 35.5°F1.9°C 62% 9.1 mph 14.6 kmh 9.6 mph15.4 kmh 30.01 in1016.3 mb 0.00 in0.0 mm 0.00 in/hr0.0 mm/hr 0.00 in0.0 mm
09:42 AM 47.9°F8.8°C 35.1°F1.7°C 61% 5.1 mph NNE8.2 kmh NNE 9.6 mph15.4 kmh 30.01 in1016.3 mb 0.00 in0.0 mm 0.00 in/hr0.0 mm/hr 0.00 in0.0 mm
09:47 AM 48.6°F9.2°C 35.8°F2.1°C 61% 4.9 mph E7.9 kmh E 8.9 mph14.3 kmh 30.01 in1016.3 mb 0.00 in0.0 mm 0.00 in/hr0.0 mm/hr 0.00 in0.0 mm
09:52 AM 49.0°F9.4°C 36.1°F2.3°C 61% 6.3 mph NNE10.1 kmh NNE 8.9 mph14.3 kmh 30.02 in1016.6 mb 0.00 in0.0 mm 0.00 in/hr0.0 mm/hr 0.00 in0.0 mm
09:57 AM 49.3°F9.6°C 36.5°F2.5°C 61% 4.9 mph NE7.9 kmh NE 8.3 mph13.4 kmh 30.02 in1016.6 mb 0.00 in0.0 mm 0.00 in/hr0.0 mm/hr 0.00 in0.0 mm
10:02 AM 49.9°F9.9°C 36.5°F2.5°C 60% 3.9 mph NNE6.3 kmh NNE 6.7 mph10.8 kmh 30.02 in1016.6 mb 0.00 in0.0 mm 0.00 in/hr0.0 mm/hr 0.00 in0.0 mm
10:07 AM 50.0°F10.0°C 35.8°F2.1°C 58% 6.9 mph 11.1 kmh 7.2 mph11.6 kmh 30.02 in1016.6 mb 0.00 in0.0 mm 0.00 in/hr0.0 mm/hr 0.00 in0.0 mm
10:12 AM 49.9°F9.9°C 35.2°F1.8°C 57% 7.4 mph NNE11.9 kmh NNE 9.2 mph14.8 kmh 30.02 in1016.6 mb 0.00 in0.0 mm 0.00 in/hr0.0 mm/hr 0.00 in0.0 mm
10:17 AM 50.0°F10.0°C 35.4°F1.9°C 57% 5.2 mph 8.4 kmh 9.2 mph14.8 kmh 30.02 in1016.6 mb 0.00 in0.0 mm 0.00 in/hr0.0 mm/hr 0.00 in0.0 mm
10:22 AM 50.8°F10.4°C 35.6°F2.0°C 56% 3.1 mph NE5.0 kmh NE 6.9 mph11.1 kmh 30.02 in1016.6 mb 0.00 in0.0 mm 0.00 in/hr0.0 mm/hr 0.00 in0.0 mm
10:27 AM 51.8°F11.0°C 37.0°F2.8°C 57% 3.7 mph N6.0 kmh N 6.7 mph10.8 kmh 30.03 in1016.9 mb 0.00 in0.0 mm 0.00 in/hr0.0 mm/hr 0.00 in0.0 mm
10:32 AM 52.9°F11.6°C 37.1°F2.8°C 55% 3.7 mph NE6.0 kmh NE 5.4 mph8.7 kmh 30.02 in1016.6 mb 0.00 in0.0 mm 0.00 in/hr0.0 mm/hr 0.00 in0.0 mm
10:37 AM 54.2°F12.3°C 37.8°F3.2°C 54% 3.3 mph E5.3 kmh E 5.4 mph8.7 kmh 30.02 in1016.6 mb 0.00 in0.0 mm 0.00 in/hr0.0 mm/hr 0.00 in0.0 mm
10:42 AM 56.0°F13.3°C 39.1°F3.9°C 53% 3.1 mph E5.0 kmh E 5.1 mph8.2 kmh 30.02 in1016.6 mb 0.00 in0.0 mm 0.00 in/hr0.0 mm/hr 0.00 in0.0 mm
10:47 AM 57.1°F13.9°C 39.6°F4.2°C 52% 1.4 mph NNE2.3 kmh NNE 7.8 mph12.6 kmh 30.02 in1016.6 mb 0.00 in0.0 mm 0.00 in/hr0.0 mm/hr 0.00 in0.0 mm
10:52 AM 58.0°F14.4°C 40.0°F4.4°C 51% 3.9 mph SW6.3 kmh SW 7.8 mph12.6 kmh 30.02 in1016.6 mb 0.00 in0.0 mm 0.00 in/hr0.0 mm/hr 0.00 in0.0 mm
10:57 AM 58.7°F14.8°C 40.1°F4.5°C 50% 2.4 mph W3.9 kmh W 4.3 mph6.9 kmh 30.02 in1016.6 mb 0.00 in0.0 mm 0.00 in/hr0.0 mm/hr 0.00 in0.0 mm
11:02 AM 59.9°F15.5°C 41.3°F5.2°C 50% 0.3 mph ESE0.5 kmh ESE 4.3 mph6.9 kmh 30.02 in1016.6 mb 0.00 in0.0 mm 0.00 in/hr0.0 mm/hr 0.00 in0.0 mm
11:07 AM 61.2°F16.2°C 41.9°F5.5°C 49% 2.7 mph S4.3 kmh S 3.8 mph6.1 kmh 30.02 in1016.6 mb 0.00 in0.0 mm 0.00 in/hr0.0 mm/hr 0.00 in0.0 mm
11:12 AM 62.5°F16.9°C 42.4°F5.8°C 48% 4.7 mph S7.6 kmh S 7.2 mph11.6 kmh 30.02 in1016.6 mb 0.00 in0.0 mm 0.00 in/hr0.0 mm/hr 0.00 in0.0 mm
11:17 AM 63.9°F17.7°C 42.6°F5.9°C 46% 1.7 mph SSW2.7 kmh SSW 7.2 mph11.6 kmh 30.02 in1016.6 mb 0.00 in0.0 mm 0.00 in/hr0.0 mm/hr 0.00 in0.0 mm
11:22 AM 65.2°F18.4°C 43.2°F6.2°C 45% 5.4 mph WSW8.7 kmh WSW 8.9 mph14.3 kmh 30.02 in1016.6 mb 0.00 in0.0 mm 0.00 in/hr0.0 mm/hr 0.00 in0.0 mm
11:27 AM 64.4°F18.0°C 40.8°F4.9°C 42% 4.5 mph W7.2 kmh W 8.9 mph14.3 kmh 30.01 in1016.3 mb 0.00 in0.0 mm 0.00 in/hr0.0 mm/hr 0.00 in0.0 mm
11:32 AM 63.5°F17.5°C 40.0°F4.4°C 42% 3.8 mph W6.1 kmh W 7.4 mph11.9 kmh 30.01 in1016.3 mb 0.00 in0.0 mm 0.00 in/hr0.0 mm/hr 0.00 in0.0 mm
11:37 AM 63.2°F17.3°C 40.2°F4.6°C 43% 2.9 mph WSW4.7 kmh WSW 7.4 mph11.9 kmh 30.01 in1016.3 mb 0.00 in0.0 mm 0.00 in/hr0.0 mm/hr 0.00 in0.0 mm
11:42 AM 62.3°F16.8°C 39.4°F4.1°C 43% 2.1 mph NW3.4 kmh NW 9.2 mph14.8 kmh 30.01 in1016.3 mb 0.00 in0.0 mm 0.00 in/hr0.0 mm/hr 0.00 in0.0 mm
11:47 AM 62.1°F16.7°C 38.6°F3.7°C 42% 8.1 mph NW13.0 kmh NW 9.2 mph14.8 kmh 30.00 in1015.9 mb 0.00 in0.0 mm 0.00 in/hr0.0 mm/hr 0.00 in0.0 mm
11:52 AM 61.6°F16.4°C 38.7°F3.7°C 43% 1.5 mph WSW2.4 kmh WSW 9.2 mph14.8 kmh 30.00 in1015.9 mb 0.00 in0.0 mm 0.00 in/hr0.0 mm/hr 0.00 in0.0 mm
11:57 AM 62.6°F17.0°C 40.3°F4.6°C 44% 3.4 mph SW5.5 kmh SW 9.8 mph15.8 kmh 30.00 in1015.9 mb 0.00 in0.0 mm 0.00 in/hr0.0 mm/hr 0.00 in0.0 mm
12:03 PM 63.0°F17.2°C 40.1°F4.5°C 43% 1.7 mph SW2.7 kmh SW 9.8 mph15.8 kmh 30.00 in1015.9 mb 0.00 in0.0 mm 0.00 in/hr0.0 mm/hr 0.00 in0.0 mm
12:08 PM 65.0°F18.3°C 42.4°F5.8°C 44% 7.6 mph S12.2 kmh S 8.9 mph14.3 kmh 29.99 in1015.6 mb 0.00 in0.0 mm 0.00 in/hr0.0 mm/hr 0.00 in0.0 mm
12:13 PM 67.0°F19.4°C 43.0°F6.1°C 42% 2.7 mph SW4.3 kmh SW 9.2 mph14.8 kmh 29.99 in1015.6 mb 0.00 in0.0 mm 0.00 in/hr0.0 mm/hr 0.00 in0.0 mm
12:18 PM 67.0°F19.4°C 41.9°F5.5°C 40% 4.4 mph SW7.1 kmh SW 9.2 mph14.8 kmh 29.99 in1015.6 mb 0.00 in0.0 mm 0.00 in/hr0.0 mm/hr 0.00 in0.0 mm
12:22 PM 67.0°F19.4°C 41.9°F5.5°C 40% 2.3 mph WSW3.7 kmh WSW 8.5 mph13.7 kmh 29.99 in1015.6 mb 0.00 in0.0 mm 0.00 in/hr0.0 mm/hr 0.00 in0.0 mm
12:27 PM 67.7°F19.8°C 42.5°F5.8°C 40% 4.6 mph S7.4 kmh S 8.7 mph14.0 kmh 29.99 in1015.6 mb 0.00 in0.0 mm 0.00 in/hr0.0 mm/hr 0.00 in0.0 mm
12:32 PM 68.0°F20.0°C 42.8°F6.0°C 40% 7.6 mph SSW12.2 kmh SSW 8.7 mph14.0 kmh 29.99 in1015.6 mb 0.00 in0.0 mm 0.00 in/hr0.0 mm/hr 0.00 in0.0 mm
12:37 PM 68.4°F20.2°C 42.4°F5.8°C 39% 6.8 mph SW10.9 kmh SW 9.6 mph15.4 kmh 29.99 in1015.6 mb 0.00 in0.0 mm 0.00 in/hr0.0 mm/hr 0.00 in0.0 mm
12:42 PM 69.3°F20.7°C 43.2°F6.2°C 39% 6.8 mph S10.9 kmh S 10.5 mph16.9 kmh 29.99 in1015.6 mb 0.00 in0.0 mm 0.00 in/hr0.0 mm/hr 0.00 in0.0 mm
12:47 PM 69.7°F20.9°C 42.9°F6.1°C 38% 9.1 mph SSW14.6 kmh SSW 10.7 mph17.2 kmh 29.98 in1015.2 mb 0.00 in0.0 mm 0.00 in/hr0.0 mm/hr 0.00 in0.0 mm
12:52 PM 70.0°F21.1°C 43.1°F6.2°C 38% 7.6 mph SW12.2 kmh SW 10.7 mph17.2 kmh 29.98 in1015.2 mb 0.00 in0.0 mm 0.00 in/hr0.0 mm/hr 0.00 in0.0 mm
12:57 PM 69.8°F21.0°C 43.0°F6.1°C 38% 7.2 mph SW11.6 kmh SW 10.1 mph16.3 kmh 29.98 in1015.2 mb 0.00 in0.0 mm 0.00 in/hr0.0 mm/hr 0.00 in0.0 mm
01:03 PM 69.8°F21.0°C 42.2°F5.7°C 37% 5.6 mph SW9.0 kmh SW 10.1 mph16.3 kmh 29.98 in1015.2 mb 0.00 in0.0 mm 0.00 in/hr0.0 mm/hr 0.00 in0.0 mm
01:08 PM 69.1°F20.6°C 41.6°F5.3°C 37% 11.9 mph SW19.2 kmh SW 12.1 mph19.5 kmh 29.98 in1015.2 mb 0.00 in0.0 mm 0.00 in/hr0.0 mm/hr 0.00 in0.0 mm
01:13 PM 68.9°F20.5°C 41.4°F5.2°C 37% 6.6 mph SW10.6 kmh SW 12.5 mph20.1 kmh 29.98 in1015.2 mb 0.00 in0.0 mm 0.00 in/hr0.0 mm/hr 0.00 in0.0 mm
01:18 PM 69.5°F20.8°C 42.0°F5.6°C 37% 3.6 mph WSW5.8 kmh WSW 12.5 mph20.1 kmh 29.97 in1014.9 mb 0.00 in0.0 mm 0.00 in/hr0.0 mm/hr 0.00 in0.0 mm
01:23 PM 69.7°F20.9°C 42.1°F5.6°C 37% 9.4 mph SW15.1 kmh SW 13.4 mph21.6 kmh 29.97 in1014.9 mb 0.00 in0.0 mm 0.00 in/hr0.0 mm/hr 0.00 in0.0 mm
01:28 PM 70.2°F21.2°C 42.6°F5.9°C 37% 1.2 mph SSE1.9 kmh SSE 13.4 mph21.6 kmh 29.97 in1014.9 mb 0.00 in0.0 mm 0.00 in/hr0.0 mm/hr 0.00 in0.0 mm
01:33 PM 70.7°F21.5°C 43.0°F6.1°C 37% 3.0 mph S4.8 kmh S 7.6 mph12.2 kmh 29.97 in1014.9 mb 0.00 in0.0 mm 0.00 in/hr0.0 mm/hr 0.00 in0.0 mm
01:38 PM 71.1°F21.7°C 42.0°F5.6°C 35% 7.3 mph S11.7 kmh S 9.6 mph15.4 kmh 29.97 in1014.9 mb 0.00 in0.0 mm 0.00 in/hr0.0 mm/hr 0.00 in0.0 mm
01:42 PM 70.7°F21.5°C 40.9°F4.9°C 34% 8.1 mph SW13.0 kmh SW 13.4 mph21.6 kmh 29.97 in1014.9 mb 0.00 in0.0 mm 0.00 in/hr0.0 mm/hr 0.00 in0.0 mm
01:47 PM 69.5°F20.8°C 40.4°F4.7°C 35% 6.7 mph S10.8 kmh S 13.4 mph21.6 kmh 29.97 in1014.9 mb 0.00 in0.0 mm 0.00 in/hr0.0 mm/hr 0.00 in0.0 mm
01:52 PM 69.7°F20.9°C 42.1°F5.6°C 37% 4.8 mph S7.7 kmh S 9.4 mph15.1 kmh 29.97 in1014.9 mb 0.00 in0.0 mm 0.00 in/hr0.0 mm/hr 0.00 in0.0 mm
01:57 PM 70.7°F21.5°C 40.9°F4.9°C 34% 10.9 mph S17.5 kmh S 11.4 mph18.3 kmh 29.97 in1014.9 mb 0.00 in0.0 mm 0.00 in/hr0.0 mm/hr 0.00 in0.0 mm
02:03 PM 70.9°F21.6°C 40.2°F4.6°C 33% 15.8 mph SW25.4 kmh SW 17.2 mph27.7 kmh 29.97 in1014.9 mb 0.00 in0.0 mm 0.00 in/hr0.0 mm/hr 0.00 in0.0 mm
02:08 PM 70.2°F21.2°C 40.3°F4.6°C 34% 6.3 mph SSW10.1 kmh SSW 17.2 mph27.7 kmh 29.96 in1014.6 mb 0.00 in0.0 mm 0.00 in/hr0.0 mm/hr 0.00 in0.0 mm
02:13 PM 70.9°F21.6°C 41.1°F5.1°C 34% 7.7 mph WSW12.4 kmh WSW 12.1 mph19.5 kmh 29.96 in1014.6 mb 0.00 in0.0 mm 0.00 in/hr0.0 mm/hr 0.00 in0.0 mm
02:18 PM 70.2°F21.2°C 40.3°F4.6°C 34% 8.5 mph SW13.7 kmh SW 12.1 mph19.5 kmh 29.96 in1014.6 mb 0.00 in0.0 mm 0.00 in/hr0.0 mm/hr 0.00 in0.0 mm
02:23 PM 70.9°F21.6°C 41.1°F5.1°C 34% 7.3 mph SW11.7 kmh SW 12.1 mph19.5 kmh 29.96 in1014.6 mb 0.00 in0.0 mm 0.00 in/hr0.0 mm/hr 0.00 in0.0 mm
02:28 PM 72.0°F22.2°C 41.9°F5.5°C 34% 5.2 mph S8.4 kmh S 12.1 mph19.5 kmh 29.96 in1014.6 mb 0.00 in0.0 mm 0.00 in/hr0.0 mm/hr 0.00 in0.0 mm
02:33 PM 73.1°F22.8°C 42.1°F5.6°C 33% 2.8 mph S4.5 kmh S 9.2 mph14.8 kmh 29.96 in1014.6 mb 0.00 in0.0 mm 0.00 in/hr0.0 mm/hr 0.00 in0.0 mm
02:38 PM 73.6°F23.1°C 41.9°F5.5°C 32% 11.1 mph SW17.9 kmh SW 12.3 mph19.8 kmh 29.96 in1014.6 mb 0.00 in0.0 mm 0.00 in/hr0.0 mm/hr 0.00 in0.0 mm
02:43 PM 73.1°F22.8°C 41.4°F5.2°C 32% 8.3 mph SW13.4 kmh SW 12.3 mph19.8 kmh 29.96 in1014.6 mb 0.00 in0.0 mm 0.00 in/hr0.0 mm/hr 0.00 in0.0 mm
02:48 PM 72.7°F22.6°C 41.0°F5.0°C 32% 2.1 mph S3.4 kmh S 12.3 mph19.8 kmh 29.95 in1014.2 mb 0.00 in0.0 mm 0.00 in/hr0.0 mm/hr 0.00 in0.0 mm
02:53 PM 72.7°F22.6°C 40.3°F4.6°C 31% 11.0 mph SW17.7 kmh SW 16.3 mph26.2 kmh 29.95 in1014.2 mb 0.00 in0.0 mm 0.00 in/hr0.0 mm/hr 0.00 in0.0 mm
02:58 PM 72.2°F22.3°C 40.6°F4.8°C 32% 8.6 mph S13.8 kmh S 16.3 mph26.2 kmh 29.95 in1014.2 mb 0.00 in0.0 mm 0.00 in/hr0.0 mm/hr 0.00 in0.0 mm
03:03 PM 72.7°F22.6°C 41.0°F5.0°C 32% 4.8 mph SW7.7 kmh SW 12.5 mph20.1 kmh 29.95 in1014.2 mb 0.00 in0.0 mm 0.00 in/hr0.0 mm/hr 0.00 in0.0 mm
03:08 PM 74.0°F23.3°C 42.1°F5.6°C 32% 5.0 mph SSW8.0 kmh SSW 8.9 mph14.3 kmh 29.95 in1014.2 mb 0.00 in0.0 mm 0.00 in/hr0.0 mm/hr 0.00 in0.0 mm
03:13 PM 74.5°F23.6°C 41.1°F5.1°C 30% 8.9 mph SSW14.3 kmh SSW 12.8 mph20.6 kmh 29.94 in1013.9 mb 0.00 in0.0 mm 0.00 in/hr0.0 mm/hr 0.00 in0.0 mm
03:18 PM 74.3°F23.5°C 41.0°F5.0°C 30% 10.5 mph S16.9 kmh S 14.3 mph23.0 kmh 29.94 in1013.9 mb 0.00 in0.0 mm 0.00 in/hr0.0 mm/hr 0.00 in0.0 mm
03:23 PM 74.2°F23.4°C 40.8°F4.9°C 30% 9.1 mph SSW14.6 kmh SSW 14.3 mph23.0 kmh 29.94 in1013.9 mb 0.00 in0.0 mm 0.00 in/hr0.0 mm/hr 0.00 in0.0 mm
03:28 PM 74.3°F23.5°C 41.0°F5.0°C 30% 5.5 mph SW8.9 kmh SW 12.1 mph19.5 kmh 29.94 in1013.9 mb 0.00 in0.0 mm 0.00 in/hr0.0 mm/hr 0.00 in0.0 mm
03:33 PM 74.7°F23.7°C 41.3°F5.2°C 30% 4.9 mph SW7.9 kmh SW 9.8 mph15.8 kmh 29.94 in1013.9 mb 0.00 in0.0 mm 0.00 in/hr0.0 mm/hr 0.00 in0.0 mm
03:38 PM 74.9°F23.8°C 41.4°F5.2°C 30% 7.8 mph SW12.6 kmh SW 9.8 mph15.8 kmh 29.94 in1013.9 mb 0.00 in0.0 mm 0.00 in/hr0.0 mm/hr 0.00 in0.0 mm
03:43 PM 74.2°F23.4°C 39.8°F4.3°C 29% 5.9 mph SW9.5 kmh SW 10.3 mph16.6 kmh 29.94 in1013.9 mb 0.00 in0.0 mm 0.00 in/hr0.0 mm/hr 0.00 in0.0 mm
03:48 PM 74.5°F23.6°C 41.1°F5.1°C 30% 5.8 mph S9.3 kmh S 10.3 mph16.6 kmh 29.93 in1013.5 mb 0.00 in0.0 mm 0.00 in/hr0.0 mm/hr 0.00 in0.0 mm
03:53 PM 74.5°F23.6°C 41.1°F5.1°C 30% 10.1 mph WSW16.3 kmh WSW 14.3 mph23.0 kmh 29.93 in1013.5 mb 0.00 in0.0 mm 0.00 in/hr0.0 mm/hr 0.00 in0.0 mm
03:58 PM 73.4°F23.0°C 39.2°F4.0°C 29% 7.3 mph SW11.7 kmh SW 15.7 mph25.3 kmh 29.93 in1013.5 mb 0.00 in0.0 mm 0.00 in/hr0.0 mm/hr 0.00 in0.0 mm
04:04 PM 73.1°F22.8°C 38.9°F3.8°C 29% 10.2 mph SSW16.4 kmh SSW 15.7 mph25.3 kmh 29.93 in1013.5 mb 0.00 in0.0 mm 0.00 in/hr0.0 mm/hr 0.00 in0.0 mm
04:09 PM 72.4°F22.4°C 38.3°F3.5°C 29% 10.9 mph SW17.5 kmh SW 11.4 mph18.3 kmh 29.93 in1013.5 mb 0.00 in0.0 mm 0.00 in/hr0.0 mm/hr 0.00 in0.0 mm
04:14 PM 71.8°F22.1°C 37.8°F3.2°C 29% 12.1 mph SW19.5 kmh SW 12.1 mph19.5 kmh 29.93 in1013.5 mb 0.00 in0.0 mm 0.00 in/hr0.0 mm/hr 0.00 in0.0 mm
04:19 PM 72.2°F22.3°C 39.2°F4.0°C 30% 5.7 mph SW9.2 kmh SW 12.1 mph19.5 kmh 29.93 in1013.5 mb 0.00 in0.0 mm 0.00 in/hr0.0 mm/hr 0.00 in0.0 mm
04:24 PM 73.1°F22.8°C 39.9°F4.4°C 30% 1.7 mph W2.7 kmh W 8.1 mph13.0 kmh 29.93 in1013.5 mb 0.00 in0.0 mm 0.00 in/hr0.0 mm/hr 0.00 in0.0 mm
04:29 PM 73.3°F22.9°C 39.0°F3.9°C 29% 5.3 mph SW8.5 kmh SW 7.4 mph11.9 kmh 29.92 in1013.2 mb 0.00 in0.0 mm 0.00 in/hr0.0 mm/hr 0.00 in0.0 mm
04:34 PM 72.7°F22.6°C 36.6°F2.6°C 27% 9.0 mph WSW14.5 kmh WSW 13.0 mph20.9 kmh 29.93 in1013.5 mb 0.00 in0.0 mm 0.00 in/hr0.0 mm/hr 0.00 in0.0 mm
04:39 PM 72.2°F22.3°C 36.1°F2.3°C 27% 12.1 mph SW19.5 kmh SW 13.0 mph20.9 kmh 29.92 in1013.2 mb 0.00 in0.0 mm 0.00 in/hr0.0 mm/hr 0.00 in0.0 mm
04:44 PM 72.0°F22.2°C 36.9°F2.7°C 28% 8.9 mph SW14.3 kmh SW 12.5 mph20.1 kmh 29.92 in1013.2 mb 0.00 in0.0 mm 0.00 in/hr0.0 mm/hr 0.00 in0.0 mm
04:48 PM 71.8°F22.1°C 36.8°F2.7°C 28% 10.1 mph SSW16.3 kmh SSW 11.6 mph18.7 kmh 29.92 in1013.2 mb 0.00 in0.0 mm 0.00 in/hr0.0 mm/hr 0.00 in0.0 mm
04:53 PM 72.0°F22.2°C 36.9°F2.7°C 28% 4.1 mph SW6.6 kmh SW 11.2 mph18.0 kmh 29.92 in1013.2 mb 0.00 in0.0 mm 0.00 in/hr0.0 mm/hr 0.00 in0.0 mm
04:58 PM 72.5°F22.5°C 37.4°F3.0°C 28% 6.7 mph SW10.8 kmh SW 11.4 mph18.3 kmh 29.92 in1013.2 mb 0.00 in0.0 mm 0.00 in/hr0.0 mm/hr 0.00 in0.0 mm
05:04 PM 72.2°F22.3°C 34.0°F1.1°C 25% 9.8 mph SW15.8 kmh SW 12.3 mph19.8 kmh 29.92 in1013.2 mb 0.00 in0.0 mm 0.00 in/hr0.0 mm/hr 0.00 in0.0 mm
05:09 PM 71.6°F22.0°C 34.6°F1.4°C 26% 6.7 mph SSW10.8 kmh SSW 12.3 mph19.8 kmh 29.92 in1013.2 mb 0.00 in0.0 mm 0.00 in/hr0.0 mm/hr 0.00 in0.0 mm
05:14 PM 71.3°F21.8°C 34.3°F1.3°C 26% 9.6 mph WSW15.4 kmh WSW 12.1 mph19.5 kmh 29.92 in1013.2 mb 0.00 in0.0 mm 0.00 in/hr0.0 mm/hr 0.00 in0.0 mm
05:19 PM 70.6°F21.4°C 31.7°F-0.2°C 24% 14.4 mph WSW23.2 kmh WSW 15.7 mph25.3 kmh 29.92 in1013.2 mb 0.00 in0.0 mm 0.00 in/hr0.0 mm/hr 0.00 in0.0 mm
05:24 PM 69.1°F20.6°C 30.4°F-0.9°C 24% 10.1 mph W16.3 kmh W 15.7 mph25.3 kmh 29.92 in1013.2 mb 0.00 in0.0 mm 0.00 in/hr0.0 mm/hr 0.00 in0.0 mm
05:29 PM 68.6°F20.3°C 32.0°F0.0°C 26% 6.4 mph WSW10.3 kmh WSW 13.2 mph21.2 kmh 29.92 in1013.2 mb 0.00 in0.0 mm 0.00 in/hr0.0 mm/hr 0.00 in0.0 mm
05:34 PM 68.6°F20.3°C 31.0°F-0.6°C 25% 15.5 mph WSW24.9 kmh WSW 18.1 mph29.1 kmh 29.92 in1013.2 mb 0.00 in0.0 mm 0.00 in/hr0.0 mm/hr 0.00 in0.0 mm
05:39 PM 68.0°F20.0°C 31.5°F-0.3°C 26% 9.4 mph WSW15.1 kmh WSW 18.1 mph29.1 kmh 29.92 in1013.2 mb 0.00 in0.0 mm 0.00 in/hr0.0 mm/hr 0.00 in0.0 mm
05:44 PM 67.9°F19.9°C 30.3°F-0.9°C 25% 11.6 mph WSW18.7 kmh WSW 14.3 mph23.0 kmh 29.92 in1013.2 mb 0.00 in0.0 mm 0.00 in/hr0.0 mm/hr 0.00 in0.0 mm
05:49 PM 67.5°F19.7°C 31.1°F-0.5°C 26% 12.0 mph WSW19.3 kmh WSW 14.3 mph23.0 kmh 29.93 in1013.5 mb 0.00 in0.0 mm 0.00 in/hr0.0 mm/hr 0.00 in0.0 mm
05:54 PM 67.0°F19.4°C 29.6°F-1.3°C 25% 10.5 mph W16.9 kmh W 12.8 mph20.6 kmh 29.93 in1013.5 mb 0.00 in0.0 mm 0.00 in/hr0.0 mm/hr 0.00 in0.0 mm
05:59 PM 66.6°F19.2°C 30.3°F-0.9°C 26% 9.2 mph WSW14.8 kmh WSW 11.2 mph18.0 kmh 29.93 in1013.5 mb 0.00 in0.0 mm 0.00 in/hr0.0 mm/hr 0.00 in0.0 mm
06:04 PM 66.6°F19.2°C 30.3°F-0.9°C 26% 4.2 mph WSW6.8 kmh WSW 10.5 mph16.9 kmh 29.93 in1013.5 mb 0.00 in0.0 mm 0.00 in/hr0.0 mm/hr 0.00 in0.0 mm
06:09 PM 66.6°F19.2°C 30.3°F-0.9°C 26% 7.3 mph WSW11.7 kmh WSW 9.2 mph14.8 kmh 29.93 in1013.5 mb 0.00 in0.0 mm 0.00 in/hr0.0 mm/hr 0.00 in0.0 mm
06:14 PM 66.6°F19.2°C 30.3°F-0.9°C 26% 5.7 mph SW9.2 kmh SW 9.6 mph15.4 kmh 29.93 in1013.5 mb 0.00 in0.0 mm 0.00 in/hr0.0 mm/hr 0.00 in0.0 mm
06:19 PM 66.6°F19.2°C 30.3°F-0.9°C 26% 5.3 mph SW8.5 kmh SW 9.6 mph15.4 kmh 29.93 in1013.5 mb 0.00 in0.0 mm 0.00 in/hr0.0 mm/hr 0.00 in0.0 mm
06:24 PM 66.8°F19.3°C 31.4°F-0.3°C 27% 4.1 mph S6.6 kmh S 6.3 mph10.1 kmh 29.93 in1013.5 mb 0.00 in0.0 mm 0.00 in/hr0.0 mm/hr 0.00 in0.0 mm
06:29 PM 66.4°F19.1°C 30.2°F-1.0°C 26% 6.3 mph WSW10.1 kmh WSW 8.7 mph14.0 kmh 29.93 in1013.5 mb 0.00 in0.0 mm 0.00 in/hr0.0 mm/hr 0.00 in0.0 mm
06:34 PM 65.7°F18.7°C 29.5°F-1.4°C 26% 6.1 mph SW9.8 kmh SW 8.7 mph14.0 kmh 29.93 in1013.5 mb 0.00 in0.0 mm 0.00 in/hr0.0 mm/hr 0.00 in0.0 mm
06:39 PM 65.0°F18.3°C 29.9°F-1.2°C 27% 6.4 mph WSW10.3 kmh WSW 7.6 mph12.2 kmh 29.93 in1013.5 mb 0.00 in0.0 mm 0.00 in/hr0.0 mm/hr 0.00 in0.0 mm
06:44 PM 64.3°F17.9°C 30.2°F-1.0°C 28% 7.1 mph W11.4 kmh W 7.6 mph12.2 kmh 29.93 in1013.5 mb 0.00 in0.0 mm 0.00 in/hr0.0 mm/hr 0.00 in0.0 mm
06:49 PM 63.9°F17.7°C 29.0°F-1.7°C 27% 4.1 mph W6.6 kmh W 7.6 mph12.2 kmh 29.93 in1013.5 mb 0.00 in0.0 mm 0.00 in/hr0.0 mm/hr 0.00 in0.0 mm
06:54 PM 63.7°F17.6°C 28.8°F-1.8°C 27% 4.4 mph W7.1 kmh W 6.3 mph10.1 kmh 29.93 in1013.5 mb 0.00 in0.0 mm 0.00 in/hr0.0 mm/hr 0.00 in0.0 mm
07:00 PM 63.0°F17.2°C 28.2°F-2.1°C 27% 7.0 mph WNW11.3 kmh WNW 7.6 mph12.2 kmh 29.93 in1013.5 mb 0.00 in0.0 mm 0.00 in/hr0.0 mm/hr 0.00 in0.0 mm
07:05 PM 62.3°F16.8°C 28.5°F-1.9°C 28% 4.6 mph NW7.4 kmh NW 7.6 mph12.2 kmh 29.93 in1013.5 mb 0.00 in0.0 mm 0.00 in/hr0.0 mm/hr 0.00 in0.0 mm
07:09 PM 61.6°F16.4°C 27.9°F-2.3°C 28% 3.2 mph NNW5.1 kmh NNW 7.6 mph12.2 kmh 29.93 in1013.5 mb 0.00 in0.0 mm 0.00 in/hr0.0 mm/hr 0.00 in0.0 mm
07:14 PM 61.2°F16.2°C 27.5°F-2.5°C 28% 3.4 mph NW5.5 kmh NW 4.5 mph7.2 kmh 29.93 in1013.5 mb 0.00 in0.0 mm 0.00 in/hr0.0 mm/hr 0.00 in0.0 mm
07:19 PM 60.5°F15.8°C 27.0°F-2.8°C 28% 2.3 mph N3.7 kmh N 3.8 mph6.1 kmh 29.93 in1013.5 mb 0.00 in0.0 mm 0.00 in/hr0.0 mm/hr 0.00 in0.0 mm
07:24 PM 59.4°F15.2°C 26.1°F-3.3°C 28% 3.8 mph NNW6.1 kmh NNW 4.0 mph6.4 kmh 29.93 in1013.5 mb 0.00 in0.0 mm 0.00 in/hr0.0 mm/hr 0.00 in0.0 mm
07:29 PM 58.5°F14.7°C 26.3°F-3.2°C 29% 4.7 mph NW7.6 kmh NW 5.4 mph8.7 kmh 29.93 in1013.5 mb 0.00 in0.0 mm 0.00 in/hr0.0 mm/hr 0.00 in0.0 mm
07:34 PM 57.6°F14.2°C 25.5°F-3.6°C 29% 6.4 mph NW10.3 kmh NW 6.9 mph11.1 kmh 29.93 in1013.5 mb 0.00 in0.0 mm 0.00 in/hr0.0 mm/hr 0.00 in0.0 mm
07:39 PM 56.7°F13.7°C 25.7°F-3.5°C 30% 5.9 mph NNW9.5 kmh NNW 6.9 mph11.1 kmh 29.94 in1013.9 mb 0.00 in0.0 mm 0.00 in/hr0.0 mm/hr 0.00 in0.0 mm
07:44 PM 56.0°F13.3°C 24.9°F-3.9°C 30% 4.9 mph NNW7.9 kmh NNW 6.9 mph11.1 kmh 29.93 in1013.5 mb 0.00 in0.0 mm 0.00 in/hr0.0 mm/hr 0.00 in0.0 mm
07:49 PM 55.3°F12.9°C 24.3°F-4.3°C 30% 5.8 mph 9.3 kmh 7.4 mph11.9 kmh 29.94 in1013.9 mb 0.00 in0.0 mm 0.00 in/hr0.0 mm/hr 0.00 in0.0 mm
07:54 PM 54.4°F12.4°C 24.3°F-4.3°C 31% 10.6 mph N17.1 kmh N 14.3 mph23.0 kmh 29.94 in1013.9 mb 0.00 in0.0 mm 0.00 in/hr0.0 mm/hr 0.00 in0.0 mm
08:00 PM 54.5°F12.5°C 24.5°F-4.2°C 31% 5.9 mph NNW9.5 kmh NNW 14.3 mph23.0 kmh 29.94 in1013.9 mb 0.00 in0.0 mm 0.00 in/hr0.0 mm/hr 0.00 in0.0 mm
08:05 PM 54.4°F12.4°C 24.3°F-4.3°C 31% 5.6 mph 9.0 kmh 9.2 mph14.8 kmh 29.94 in1013.9 mb 0.00 in0.0 mm 0.00 in/hr0.0 mm/hr 0.00 in0.0 mm
08:10 PM 53.8°F12.1°C 23.9°F-4.5°C 31% 4.7 mph 7.6 kmh 6.3 mph10.1 kmh 29.95 in1014.2 mb 0.00 in0.0 mm 0.00 in/hr0.0 mm/hr 0.00 in0.0 mm
08:15 PM 53.5°F11.9°C 24.2°F-4.3°C 32% 3.1 mph 5.0 kmh 6.3 mph10.1 kmh 29.95 in1014.2 mb 0.00 in0.0 mm 0.00 in/hr0.0 mm/hr 0.00 in0.0 mm
08:20 PM 53.1°F11.7°C 24.0°F-4.4°C 32% 2.0 mph E3.2 kmh E 4.5 mph7.2 kmh 29.95 in1014.2 mb 0.00 in0.0 mm 0.00 in/hr0.0 mm/hr 0.00 in0.0 mm
08:25 PM 52.7°F11.5°C 23.6°F-4.7°C 32% 0.9 mph ESE1.4 kmh ESE 2.7 mph4.3 kmh 29.95 in1014.2 mb 0.00 in0.0 mm 0.00 in/hr0.0 mm/hr 0.00 in0.0 mm
08:30 PM 52.4°F11.3°C 23.3°F-4.8°C 32% Calm Calm 2.5 mph4.0 kmh 29.96 in1014.6 mb 0.00 in0.0 mm 0.00 in/hr0.0 mm/hr 0.00 in0.0 mm
08:34 PM 52.2°F11.2°C 23.1°F-4.9°C 32% 0.4 mph 0.6 kmh 1.1 mph1.8 kmh 29.96 in1014.6 mb 0.00 in0.0 mm 0.00 in/hr0.0 mm/hr 0.00 in0.0 mm
08:39 PM 52.2°F11.2°C 23.1°F-4.9°C 32% Calm Calm 0.4 mph0.6 kmh 29.96 in1014.6 mb 0.00 in0.0 mm 0.00 in/hr0.0 mm/hr 0.00 in0.0 mm
08:44 PM 51.8°F11.0°C 23.5°F-4.7°C 33% Calm Calm -- 29.96 in1014.6 mb 0.00 in0.0 mm 0.00 in/hr0.0 mm/hr 0.00 in0.0 mm
08:49 PM 51.5°F10.8°C 23.1°F-4.9°C 33% 0.4 mph ENE0.6 kmh ENE 0.4 mph0.6 kmh 29.97 in1014.9 mb 0.00 in0.0 mm 0.00 in/hr0.0 mm/hr 0.00 in0.0 mm
08:54 PM 51.1°F10.6°C 22.9°F-5.1°C 33% Calm Calm 0.4 mph0.6 kmh 29.96 in1014.6 mb 0.00 in0.0 mm 0.00 in/hr0.0 mm/hr 0.00 in0.0 mm
09:00 PM 50.8°F10.4°C 22.5°F-5.3°C 33% 0.8 mph ENE1.3 kmh ENE 1.1 mph1.8 kmh 29.97 in1014.9 mb 0.00 in0.0 mm 0.00 in/hr0.0 mm/hr 0.00 in0.0 mm
09:05 PM 50.6°F10.3°C 22.3°F-5.4°C 33% Calm Calm 1.1 mph1.8 kmh 29.96 in1014.6 mb 0.00 in0.0 mm 0.00 in/hr0.0 mm/hr 0.00 in0.0 mm
09:10 PM 50.4°F10.2°C 22.1°F-5.5°C 33% 1.1 mph NNW1.8 kmh NNW 1.3 mph2.1 kmh 29.97 in1014.9 mb 0.00 in0.0 mm 0.00 in/hr0.0 mm/hr 0.00 in0.0 mm
09:15 PM 50.2°F10.1°C 22.1°F-5.5°C 33% 1.9 mph NNW3.1 kmh NNW 2.2 mph3.5 kmh 29.97 in1014.9 mb 0.00 in0.0 mm 0.00 in/hr0.0 mm/hr 0.00 in0.0 mm
09:20 PM 49.7°F9.8°C 22.2°F-5.4°C 34% 2.2 mph E3.5 kmh E 2.7 mph4.3 kmh 29.97 in1014.9 mb 0.00 in0.0 mm 0.00 in/hr0.0 mm/hr 0.00 in0.0 mm
09:25 PM 48.8°F9.3°C 22.9°F-5.1°C 36% 6.8 mph E10.9 kmh E 8.9 mph14.3 kmh 29.98 in1015.2 mb 0.00 in0.0 mm 0.00 in/hr0.0 mm/hr 0.00 in0.0 mm
09:30 PM 48.2°F9.0°C 23.1°F-4.9°C 37% 5.4 mph ENE8.7 kmh ENE 8.9 mph14.3 kmh 29.98 in1015.2 mb 0.00 in0.0 mm 0.00 in/hr0.0 mm/hr 0.00 in0.0 mm
09:35 PM 48.1°F8.9°C 22.9°F-5.1°C 37% 4.7 mph E7.6 kmh E 6.5 mph10.5 kmh 29.98 in1015.2 mb 0.00 in0.0 mm 0.00 in/hr0.0 mm/hr 0.00 in0.0 mm
09:40 PM 47.9°F8.8°C 22.7°F-5.2°C 37% 3.0 mph E4.8 kmh E 5.4 mph8.7 kmh 29.98 in1015.2 mb 0.00 in0.0 mm 0.00 in/hr0.0 mm/hr 0.00 in0.0 mm
09:45 PM 47.9°F8.8°C 22.7°F-5.2°C 37% 2.9 mph NE4.7 kmh NE 4.7 mph7.6 kmh 29.98 in1015.2 mb 0.00 in0.0 mm 0.00 in/hr0.0 mm/hr 0.00 in0.0 mm
09:50 PM 47.5°F8.6°C 22.4°F-5.3°C 37% 4.7 mph NE7.6 kmh NE 5.1 mph8.2 kmh 29.98 in1015.2 mb 0.00 in0.0 mm 0.00 in/hr0.0 mm/hr 0.00 in0.0 mm
09:55 PM 47.2°F8.4°C 22.7°F-5.2°C 38% 5.1 mph NE8.2 kmh NE 5.4 mph8.7 kmh 29.98 in1015.2 mb 0.00 in0.0 mm 0.00 in/hr0.0 mm/hr 0.00 in0.0 mm
10:00 PM 47.2°F8.4°C 23.4°F-4.8°C 39% 4.1 mph NE6.6 kmh NE 5.6 mph9.0 kmh 29.98 in1015.2 mb 0.00 in0.0 mm 0.00 in/hr0.0 mm/hr 0.00 in0.0 mm
10:05 PM 47.2°F8.4°C 23.4°F-4.8°C 39% 3.9 mph ENE6.3 kmh ENE 5.6 mph9.0 kmh 29.98 in1015.2 mb 0.00 in0.0 mm 0.00 in/hr0.0 mm/hr 0.00 in0.0 mm
10:10 PM 47.2°F8.4°C 23.4°F-4.8°C 39% 3.3 mph E5.3 kmh E 4.0 mph6.4 kmh 29.98 in1015.2 mb 0.00 in0.0 mm 0.00 in/hr0.0 mm/hr 0.00 in0.0 mm
10:15 PM 47.2°F8.4°C 23.4°F-4.8°C 39% 3.4 mph ENE5.5 kmh ENE 4.0 mph6.4 kmh 29.98 in1015.2 mb 0.00 in0.0 mm 0.00 in/hr0.0 mm/hr 0.00 in0.0 mm
10:20 PM 47.0°F8.3°C 23.2°F-4.9°C 39% 2.5 mph NNW4.0 kmh NNW 4.3 mph6.9 kmh 29.98 in1015.2 mb 0.00 in0.0 mm 0.00 in/hr0.0 mm/hr 0.00 in0.0 mm
10:25 PM 46.8°F8.2°C 23.0°F-5.0°C 39% Calm Calm 4.3 mph6.9 kmh 29.99 in1015.6 mb 0.00 in0.0 mm 0.00 in/hr0.0 mm/hr 0.00 in0.0 mm
10:30 PM 46.4°F8.0°C 22.1°F-5.5°C 38% 0.6 mph ENE1.0 kmh ENE 0.9 mph1.4 kmh 29.99 in1015.6 mb 0.00 in0.0 mm 0.00 in/hr0.0 mm/hr 0.00 in0.0 mm
10:35 PM 46.3°F7.9°C 22.6°F-5.2°C 39% 0.7 mph NNW1.1 kmh NNW 2.7 mph4.3 kmh 29.99 in1015.6 mb 0.00 in0.0 mm 0.00 in/hr0.0 mm/hr 0.00 in0.0 mm
10:40 PM 45.7°F7.6°C 22.1°F-5.5°C 39% 1.5 mph NW2.4 kmh NW 2.7 mph4.3 kmh 29.99 in1015.6 mb 0.00 in0.0 mm 0.00 in/hr0.0 mm/hr 0.00 in0.0 mm
10:45 PM 45.5°F7.5°C 22.0°F-5.6°C 39% Calm Calm 1.8 mph2.9 kmh 29.99 in1015.6 mb 0.00 in0.0 mm 0.00 in/hr0.0 mm/hr 0.00 in0.0 mm
10:50 PM 45.2°F7.3°C 21.6°F-5.8°C 39% Calm Calm -- 29.99 in1015.6 mb 0.00 in0.0 mm 0.00 in/hr0.0 mm/hr 0.00 in0.0 mm
10:55 PM 45.0°F7.2°C 21.4°F-5.9°C 39% 2.0 mph W3.2 kmh W 2.5 mph4.0 kmh 29.99 in1015.6 mb 0.00 in0.0 mm 0.00 in/hr0.0 mm/hr 0.00 in0.0 mm
11:00 PM 44.8°F7.1°C 21.2°F-6.0°C 39% Calm Calm 2.5 mph4.0 kmh 29.99 in1015.6 mb 0.00 in0.0 mm 0.00 in/hr0.0 mm/hr 0.00 in0.0 mm
11:05 PM 44.5°F6.9°C 21.0°F-6.1°C 39% Calm Calm 1.6 mph2.6 kmh 29.99 in1015.6 mb 0.00 in0.0 mm 0.00 in/hr0.0 mm/hr 0.00 in0.0 mm
11:10 PM 44.1°F6.7°C 20.6°F-6.3°C 39% 1.0 mph SE1.6 kmh SE 1.1 mph1.8 kmh 29.99 in1015.6 mb 0.00 in0.0 mm 0.00 in/hr0.0 mm/hr 0.00 in0.0 mm
11:15 PM 43.7°F6.5°C 21.0°F-6.1°C 40% 2.1 mph SE3.4 kmh SE 3.4 mph5.5 kmh 29.99 in1015.6 mb 0.00 in0.0 mm 0.00 in/hr0.0 mm/hr 0.00 in0.0 mm
11:20 PM 43.2°F6.2°C 20.5°F-6.4°C 40% 1.3 mph SSW2.1 kmh SSW 3.4 mph5.5 kmh 29.99 in1015.6 mb 0.00 in0.0 mm 0.00 in/hr0.0 mm/hr 0.00 in0.0 mm
11:25 PM 42.8°F6.0°C 20.7°F-6.3°C 41% 0.4 mph W0.6 kmh W 1.8 mph2.9 kmh 29.99 in1015.6 mb 0.00 in0.0 mm 0.00 in/hr0.0 mm/hr 0.00 in0.0 mm
11:30 PM 42.7°F5.9°C 20.5°F-6.4°C 41% Calm Calm 0.4 mph0.6 kmh 29.99 in1015.6 mb 0.00 in0.0 mm 0.00 in/hr0.0 mm/hr 0.00 in0.0 mm
11:35 PM 42.5°F5.8°C 20.9°F-6.2°C 42% Calm Calm -- 29.99 in1015.6 mb 0.00 in0.0 mm 0.00 in/hr0.0 mm/hr 0.00 in0.0 mm
11:40 PM 42.5°F5.8°C 20.9°F-6.2°C 42% Calm Calm -- 29.99 in1015.6 mb 0.00 in0.0 mm 0.00 in/hr0.0 mm/hr 0.00 in0.0 mm
11:45 PM 42.7°F5.9°C 21.6°F-5.8°C 43% Calm Calm 0.4 mph0.6 kmh 29.99 in1015.6 mb 0.00 in0.0 mm 0.00 in/hr0.0 mm/hr 0.00 in0.0 mm
11:50 PM 42.8°F6.0°C 21.8°F-5.7°C 43% 1.0 mph E1.6 kmh E 1.1 mph1.8 kmh 29.99 in1015.6 mb 0.00 in0.0 mm 0.00 in/hr0.0 mm/hr 0.00 in0.0 mm
11:55 PM 42.7°F5.9°C 21.6°F-5.8°C 43% 0.2 mph E0.3 kmh E 1.8 mph2.9 kmh 29.99 in1015.6 mb 0.00 in0.0 mm 0.00 in/hr0.0 mm/hr 0.00 in0.0 mm